createdAt,value
2018-12-10T00:04:05.950Z,27.99
2018-12-10T00:10:00.941Z,27.39
2018-12-10T00:15:55.981Z,24.01
2018-12-10T00:21:50.942Z,30.82
2018-12-10T00:27:45.956Z,22.69
2018-12-10T00:33:40.952Z,25.36
2018-12-10T00:39:35.950Z,35.71
2018-12-10T00:45:30.959Z,22.76
2018-12-10T00:51:25.955Z,28.84
2018-12-10T00:57:20.962Z,28.59
2018-12-10T01:03:15.972Z,26.72
2018-12-10T01:09:11.041Z,29.1
2018-12-10T01:15:06.002Z,37.62
2018-12-10T01:21:00.982Z,29
2018-12-10T01:26:56.000Z,32.8
2018-12-10T01:32:51.010Z,21.52
2018-12-10T01:38:46.002Z,21.87
2018-12-10T01:44:41.015Z,26.63
2018-12-10T01:50:36.026Z,24.95
2018-12-10T01:56:30.986Z,20.2
2018-12-10T02:02:26.011Z,18.35
2018-12-10T02:08:21.018Z,18.42
2018-12-10T02:14:16.025Z,20.43
2018-12-10T02:20:11.011Z,21.36
2018-12-10T02:26:06.019Z,25.12
2018-12-10T02:32:01.023Z,30.9
2018-12-10T02:37:56.065Z,22.64
2018-12-10T02:43:51.016Z,19.1
2018-12-10T02:49:46.025Z,21.12
2018-12-10T02:55:41.050Z,20.98
2018-12-10T03:01:36.073Z,18.8
2018-12-10T03:07:31.023Z,16.59
2018-12-10T03:13:26.041Z,24.99
2018-12-10T03:19:21.048Z,17.57
2018-12-10T03:25:16.068Z,16.12
2018-12-10T03:31:11.106Z,17.46
2018-12-10T03:37:06.051Z,21.44
2018-12-10T03:43:01.080Z,11.9
2018-12-10T03:48:56.049Z,13.83
2018-12-10T03:54:51.077Z,16.82
2018-12-10T04:00:46.090Z,21.68
2018-12-10T04:06:41.081Z,28.71
2018-12-10T04:12:36.077Z,48.75
2018-12-10T04:18:31.088Z,20.12
2018-12-10T04:24:26.094Z,23.93
2018-12-10T04:30:21.107Z,20.7
2018-12-10T04:36:16.103Z,19.85
2018-12-10T04:42:11.126Z,15.2
2018-12-10T04:48:06.081Z,14.72
2018-12-10T04:54:01.090Z,62.76
2018-12-10T04:59:56.132Z,23.68
2018-12-10T05:05:51.107Z,34.21
2018-12-10T05:11:46.104Z,23.07
2018-12-10T05:17:41.091Z,23.51
2018-12-10T05:23:36.177Z,27.94
2018-12-10T05:29:31.114Z,46.33
2018-12-10T05:35:26.172Z,32.82
2018-12-10T05:41:21.124Z,28.03
2018-12-10T05:47:16.149Z,28.24
2018-12-10T05:53:11.134Z,27.97
2018-12-10T05:59:06.133Z,76.74
2018-12-10T06:05:01.121Z,93.55
2018-12-10T06:10:56.146Z,57.8
2018-12-10T06:16:51.204Z,44.86
2018-12-10T06:22:46.138Z,31.08
2018-12-10T06:28:41.134Z,30.6
2018-12-10T06:34:36.178Z,40.19
2018-12-10T06:40:31.190Z,37.16
2018-12-10T06:46:26.141Z,23.43
2018-12-10T06:52:21.147Z,28.31
2018-12-10T06:58:16.147Z,35.4
2018-12-10T07:04:11.162Z,30.98
2018-12-10T07:10:06.160Z,26.2
2018-12-10T07:16:01.152Z,31.76
2018-12-10T07:21:56.166Z,24.74
2018-12-10T07:27:51.178Z,44.93
2018-12-10T07:33:46.159Z,28.32
2018-12-10T07:39:41.208Z,24.77
2018-12-10T07:45:36.182Z,26.71
2018-12-10T07:51:31.208Z,24.15
2018-12-10T07:57:26.191Z,32.08
2018-12-10T08:03:21.276Z,44.4
2018-12-10T08:09:16.210Z,33.61
2018-12-10T08:15:11.300Z,29.67
2018-12-10T08:21:06.230Z,36.33
2018-12-10T08:27:01.223Z,23.22
2018-12-10T08:32:56.254Z,32.66
2018-12-10T08:38:51.237Z,38.7
2018-12-10T08:44:46.252Z,50.94
2018-12-10T08:50:41.225Z,64.48
2018-12-10T08:56:36.219Z,165.13
2018-12-10T09:02:31.217Z,109.08
2018-12-10T09:08:26.279Z,83.82
2018-12-10T09:14:21.266Z,76.5
2018-12-10T09:20:16.276Z,99.42
2018-12-10T09:26:11.223Z,91.84
2018-12-10T09:32:06.264Z,83.76
2018-12-10T09:38:01.240Z,56.51
2018-12-10T09:43:56.237Z,85.3
2018-12-10T09:49:51.262Z,73.05
2018-12-10T09:55:46.240Z,89.65
2018-12-10T10:01:41.260Z,87.36
2018-12-10T10:07:36.259Z,85.15
2018-12-10T10:13:31.256Z,74.93
2018-12-10T10:19:26.264Z,80.56
2018-12-10T10:25:21.271Z,90.56
2018-12-10T10:31:16.315Z,84.39
2018-12-10T10:37:11.270Z,160.58
2018-12-10T10:43:06.284Z,118.31
2018-12-10T10:49:01.267Z,237.49
2018-12-10T10:54:56.288Z,113.8
2018-12-10T11:00:51.282Z,111.77
2018-12-10T11:06:46.319Z,99.86
2018-12-10T11:12:41.307Z,91.32
2018-12-10T11:18:36.287Z,83.87
2018-12-10T11:24:31.324Z,87.75
2018-12-10T11:30:26.320Z,83.66
2018-12-10T11:36:21.292Z,105.81
2018-12-10T11:42:16.302Z,76.71
2018-12-10T11:48:11.337Z,88.17
2018-12-10T11:54:06.306Z,69.32
2018-12-10T12:00:01.379Z,71.04
2018-12-10T12:05:56.326Z,63.45
2018-12-10T12:11:51.321Z,66.54
2018-12-10T12:17:46.368Z,63.88
2018-12-10T12:23:41.315Z,87.51
2018-12-10T12:29:36.375Z,81.94
2018-12-10T12:35:31.349Z,79.83
2018-12-10T12:41:26.336Z,75.63
2018-12-10T12:47:21.336Z,79.48
2018-12-10T12:53:16.359Z,82.55
2018-12-10T12:59:11.349Z,71.82
2018-12-10T13:05:06.371Z,73.88
2018-12-10T13:11:01.424Z,69.47
2018-12-10T13:16:56.371Z,64.89
2018-12-10T13:22:51.351Z,56.58
2018-12-10T13:28:46.359Z,60.83
2018-12-10T13:34:41.387Z,52.99
2018-12-10T13:40:36.373Z,13.87
2018-12-10T13:46:31.367Z,55.94
2018-12-10T13:52:26.411Z,14.55
2018-12-10T13:58:21.397Z,18.5
2018-12-10T14:04:16.396Z,22.6
2018-12-10T14:10:11.398Z,33.95
2018-12-10T14:16:06.449Z,29.26
2018-12-10T14:22:01.422Z,27.59
2018-12-10T14:27:56.434Z,14.04
2018-12-10T14:33:51.438Z,19.12
2018-12-10T14:39:46.422Z,23.81
2018-12-10T14:45:41.433Z,29.19
2018-12-10T14:51:36.415Z,33.16
2018-12-10T14:57:31.423Z,37.19
2018-12-10T15:03:26.455Z,35.63
2018-12-10T15:09:21.421Z,37.59
2018-12-10T15:15:16.440Z,41.23
2018-12-10T15:21:11.520Z,26.62
2018-12-10T15:27:06.469Z,15.09
2018-12-10T15:33:01.458Z,12.72
2018-12-10T15:38:56.446Z,9.7
2018-12-10T15:44:51.506Z,9.35
2018-12-10T15:50:46.449Z,8.44
2018-12-10T15:56:41.465Z,4.38
2018-12-10T16:02:36.471Z,10.84
2018-12-10T16:08:31.493Z,9.67
2018-12-10T16:14:26.475Z,16
2018-12-10T16:20:21.503Z,26.69
2018-12-10T16:26:16.482Z,12.47
2018-12-10T16:32:11.492Z,2.57
2018-12-10T16:38:06.483Z,1.43
2018-12-10T16:44:01.540Z,2.88
2018-12-10T16:49:56.489Z,1.59
2018-12-10T16:55:51.531Z,2.38
2018-12-10T17:01:46.500Z,1.3
2018-12-10T17:07:41.527Z,0.7
2018-12-10T17:13:36.491Z,0.68
2018-12-10T17:19:31.512Z,16.97
2018-12-10T17:25:26.536Z,5.57
2018-12-10T17:31:21.541Z,1.2
2018-12-10T17:37:16.553Z,2.54
2018-12-10T17:43:11.564Z,1.49
2018-12-10T17:49:06.528Z,1.06
2018-12-10T17:55:01.529Z,1.55
2018-12-10T18:00:56.533Z,1.79
2018-12-10T18:06:51.547Z,1.76
2018-12-10T18:12:46.546Z,0.95
2018-12-10T18:18:41.547Z,1.08
2018-12-10T18:24:36.595Z,0.97
2018-12-10T18:30:31.562Z,17.6
2018-12-10T18:36:26.581Z,16.56
2018-12-10T18:42:21.536Z,13.39
2018-12-10T18:48:16.561Z,11.55
2018-12-10T18:54:11.578Z,11.7
2018-12-10T19:00:06.583Z,9.58
2018-12-10T19:06:01.587Z,3.1
2018-12-10T19:11:56.561Z,3.36
2018-12-10T19:17:51.558Z,1.22
2018-12-10T19:23:46.572Z,1.14
2018-12-10T19:29:41.565Z,0.93
2018-12-10T19:35:36.574Z,1.37
2018-12-10T19:41:31.575Z,23.82
2018-12-10T19:47:26.631Z,13.52
2018-12-10T19:53:21.594Z,19.09
2018-12-10T19:59:16.576Z,15.91
2018-12-10T20:05:11.606Z,7.5
2018-12-10T20:11:06.592Z,6.33
2018-12-10T20:17:01.651Z,6.67
2018-12-10T20:22:56.619Z,7.37
2018-12-10T20:28:51.631Z,4.29
2018-12-10T20:34:46.651Z,4.85
2018-12-10T20:40:41.601Z,3.33
2018-12-10T20:46:36.607Z,2.21
2018-12-10T20:52:31.633Z,1.74
2018-12-10T20:58:26.637Z,1.82
2018-12-10T21:04:21.632Z,3.77
2018-12-10T21:10:16.660Z,4.09
2018-12-10T21:16:11.647Z,2.08
2018-12-10T21:22:06.642Z,2.17
2018-12-10T21:28:01.645Z,4.12
2018-12-10T21:33:56.647Z,3.43
2018-12-10T21:39:51.629Z,3.89
2018-12-10T21:45:46.635Z,1.24
2018-12-10T21:51:41.646Z,2.87
2018-12-10T21:57:36.680Z,3.46
2018-12-10T22:03:31.650Z,4.15
2018-12-10T22:09:26.657Z,6.87
2018-12-10T22:15:21.689Z,2.9
2018-12-10T22:21:16.661Z,2.12
2018-12-10T22:27:11.718Z,1.02
2018-12-10T22:33:06.730Z,0.79
2018-12-10T22:39:01.719Z,0.73
2018-12-10T22:44:56.661Z,1.08
2018-12-10T22:50:51.723Z,1.18
2018-12-10T22:56:46.676Z,0.81
2018-12-10T23:02:41.678Z,1.01
2018-12-10T23:08:36.687Z,5.53
2018-12-10T23:14:31.723Z,16.83
2018-12-10T23:20:26.696Z,13.73
2018-12-10T23:26:21.696Z,19.08
2018-12-10T23:32:16.702Z,4.48
2018-12-10T23:38:11.705Z,2.54
2018-12-10T23:44:06.694Z,1.49
2018-12-10T23:50:01.729Z,4.76
2018-12-10T23:55:56.707Z,12.99
